createdAt,value
2022-10-23T00:01:26.536Z,101179.00
2022-10-23T00:04:03.913Z,101175.00
2022-10-23T00:06:31.864Z,101179.00
2022-10-23T00:08:58.290Z,101179.00
2022-10-23T00:11:26.317Z,101171.00
2022-10-23T00:13:54.434Z,101169.00
2022-10-23T00:16:21.004Z,101170.00
2022-10-23T00:18:47.608Z,101164.00
2022-10-23T00:21:15.267Z,101164.00
2022-10-23T00:23:41.736Z,101160.00
2022-10-23T00:26:08.591Z,101154.00
2022-10-23T00:28:35.151Z,101152.00
2022-10-23T00:31:03.111Z,101159.00
2022-10-23T00:33:29.539Z,101159.00
2022-10-23T00:35:55.965Z,101152.00
2022-10-23T00:38:22.419Z,101146.00
2022-10-23T00:43:20.273Z,101162.00
2022-10-23T00:45:46.916Z,101154.00
2022-10-23T00:48:13.845Z,101154.00
2022-10-23T00:50:40.659Z,101136.00
2022-10-23T00:53:07.769Z,101124.00
2022-10-23T00:55:35.092Z,101131.00
2022-10-23T00:58:01.928Z,101127.00
2022-10-23T01:00:30.753Z,101132.00
2022-10-23T01:02:57.669Z,101128.00
2022-10-23T01:05:38.889Z,101125.00
2022-10-23T01:08:10.212Z,101123.00
2022-10-23T01:10:42.873Z,101121.00
2022-10-23T01:13:14.338Z,101119.00
2022-10-23T01:15:59.121Z,101111.00
2022-10-23T01:18:44.241Z,101108.00
2022-10-23T01:21:10.634Z,101118.00
2022-10-23T01:23:56.039Z,101112.00
2022-10-23T01:26:31.620Z,101096.00
2022-10-23T01:29:01.482Z,101110.00
2022-10-23T01:31:32.645Z,101107.00
2022-10-23T01:34:02.583Z,101103.00
2022-10-23T01:36:30.939Z,101109.00
2022-10-23T01:41:40.338Z,101093.00
2022-10-23T01:44:06.880Z,101091.00
2022-10-23T01:46:35.595Z,101076.00
2022-10-23T01:49:02.507Z,101080.00
2022-10-23T01:51:30.732Z,101077.00
2022-10-23T01:53:59.341Z,101072.00
2022-10-23T01:56:31.079Z,101066.00
2022-10-23T01:58:59.945Z,101063.00
2022-10-23T02:01:27.910Z,101061.00
2022-10-23T02:03:54.979Z,101054.00
2022-10-23T02:06:21.549Z,101057.00
2022-10-23T02:08:48.157Z,101053.00
2022-10-23T02:11:15.666Z,101049.00
2022-10-23T02:13:44.957Z,101044.00
2022-10-23T02:16:32.221Z,101038.00
2022-10-23T02:19:01.407Z,101038.00
2022-10-23T02:21:31.268Z,101040.00
2022-10-23T02:24:07.216Z,101032.00
2022-10-23T02:26:40.038Z,101038.00
2022-10-23T02:29:12.432Z,101034.00
2022-10-23T02:31:38.909Z,101038.00
2022-10-23T02:34:05.496Z,101032.00
2022-10-23T02:36:34.412Z,101022.00
2022-10-23T02:39:01.005Z,101021.00
2022-10-23T02:41:37.549Z,101018.00
2022-10-23T02:44:22.138Z,101009.00
2022-10-23T02:46:48.528Z,101013.00
2022-10-23T02:49:19.024Z,101003.00
2022-10-23T02:51:48.508Z,101000.00
2022-10-23T02:54:30.794Z,100993.00
2022-10-23T02:57:03.383Z,100985.00
2022-10-23T02:59:44.002Z,100979.00
2022-10-23T03:02:13.511Z,100966.00
2022-10-23T03:04:40.752Z,100968.00
2022-10-23T03:07:10.543Z,100967.00
2022-10-23T03:09:37.102Z,100957.00
2022-10-23T03:12:03.658Z,100953.00
2022-10-23T03:14:30.087Z,100958.00
2022-10-23T03:16:56.542Z,100951.00
2022-10-23T03:19:22.950Z,100952.00
2022-10-23T03:21:49.332Z,100940.00
2022-10-23T03:24:15.791Z,100936.00
2022-10-23T03:26:42.213Z,100926.00
2022-10-23T03:29:08.637Z,100931.00
2022-10-23T03:31:35.043Z,100922.00
2022-10-23T03:34:04.091Z,100925.00
2022-10-23T03:36:32.739Z,100924.00
2022-10-23T03:39:00.286Z,100927.00
2022-10-23T03:41:26.673Z,100928.00
2022-10-23T03:43:53.101Z,100918.00
2022-10-23T03:46:19.685Z,100915.00
2022-10-23T03:48:46.174Z,100908.00
2022-10-23T03:51:12.603Z,100910.00
2022-10-23T03:53:39.067Z,100908.00
2022-10-23T03:56:05.612Z,100900.00
2022-10-23T03:58:32.052Z,100895.00
2022-10-23T04:00:58.626Z,100895.00
2022-10-23T04:03:25.324Z,100883.00
2022-10-23T04:05:52.365Z,100885.00
2022-10-23T04:08:20.189Z,100885.00
2022-10-23T04:10:46.838Z,100891.00
2022-10-23T04:13:13.253Z,100883.00
2022-10-23T04:15:39.703Z,100889.00
2022-10-23T04:18:06.111Z,100896.00
2022-10-23T04:20:32.777Z,100899.00
2022-10-23T04:22:59.219Z,100898.00
2022-10-23T04:25:25.750Z,100892.00
2022-10-23T04:27:52.219Z,100895.00
2022-10-23T04:30:18.717Z,100895.00
2022-10-23T04:32:45.133Z,100891.00
2022-10-23T04:35:11.574Z,100893.00
2022-10-23T04:37:37.989Z,100887.00
2022-10-23T04:40:04.607Z,100885.00
2022-10-23T04:42:31.056Z,100891.00
2022-10-23T04:44:57.463Z,100888.00
2022-10-23T04:47:25.092Z,100880.00
2022-10-23T04:49:51.609Z,100876.00
2022-10-23T04:52:18.152Z,100882.00
2022-10-23T04:54:44.597Z,100878.00
2022-10-23T04:57:11.051Z,100878.00
2022-10-23T04:59:37.434Z,100876.00
2022-10-23T05:02:03.954Z,100874.00
2022-10-23T05:04:30.440Z,100864.00
2022-10-23T05:06:56.879Z,100843.00
2022-10-23T05:09:23.413Z,100836.00
2022-10-23T05:11:49.868Z,100831.00
2022-10-23T05:14:20.646Z,100835.00
2022-10-23T05:16:55.701Z,100832.00
2022-10-23T05:19:24.437Z,100831.00
2022-10-23T05:21:56.004Z,100829.00
2022-10-23T05:24:22.944Z,100822.00
2022-10-23T05:26:51.673Z,100811.00
2022-10-23T05:29:18.224Z,100806.00
2022-10-23T05:31:44.666Z,100800.00
2022-10-23T05:34:13.524Z,100804.00
2022-10-23T05:36:40.138Z,100805.00
2022-10-23T05:39:06.551Z,100797.00
2022-10-23T05:41:33.216Z,100796.00
2022-10-23T05:43:59.646Z,100785.00
2022-10-23T05:46:28.048Z,100769.00
2022-10-23T05:48:54.670Z,100765.00
2022-10-23T05:51:23.028Z,100764.00
2022-10-23T05:53:49.787Z,100768.00
2022-10-23T05:56:16.280Z,100757.00
2022-10-23T05:58:43.135Z,100754.00
2022-10-23T06:01:10.744Z,100751.00
2022-10-23T06:03:37.999Z,100746.00
2022-10-23T06:06:04.811Z,100742.00
2022-10-23T06:08:32.020Z,100742.00
2022-10-23T06:10:58.480Z,100741.00
2022-10-23T06:13:24.985Z,100743.00
2022-10-23T06:15:51.440Z,100728.00
2022-10-23T06:18:17.842Z,100719.00
2022-10-23T06:20:44.357Z,100712.00
2022-10-23T06:23:10.813Z,100711.00
2022-10-23T06:25:37.315Z,100712.00
2022-10-23T06:28:03.749Z,100708.00
2022-10-23T06:30:30.271Z,100708.00
2022-10-23T06:32:56.754Z,100702.00
2022-10-23T06:35:23.188Z,100703.00
2022-10-23T06:37:49.648Z,100695.00
2022-10-23T06:40:16.095Z,100708.00
2022-10-23T06:42:42.820Z,100714.00
2022-10-23T06:45:09.413Z,100686.00
2022-10-23T06:47:35.819Z,100695.00
2022-10-23T06:50:02.285Z,100690.00
2022-10-23T06:52:47.899Z,100689.00
2022-10-23T06:55:14.732Z,100688.00
2022-10-23T06:57:41.503Z,100687.00
2022-10-23T07:00:08.457Z,100699.00
2022-10-23T07:02:34.925Z,100694.00
2022-10-23T07:05:01.489Z,100685.00
2022-10-23T07:07:29.630Z,100682.00
2022-10-23T07:09:56.104Z,100684.00
2022-10-23T07:12:22.596Z,100687.00
2022-10-23T07:14:49.028Z,100689.00
2022-10-23T07:17:15.506Z,100685.00
2022-10-23T07:19:41.970Z,100696.00
2022-10-23T07:22:10.785Z,100692.00
2022-10-23T07:24:40.283Z,100699.00
2022-10-23T07:27:06.736Z,100715.00
2022-10-23T07:29:33.434Z,100733.00
2022-10-23T07:32:01.003Z,100733.00
2022-10-23T07:34:27.712Z,100720.00
2022-10-23T07:36:56.312Z,100722.00
2022-10-23T07:39:23.125Z,100715.00
2022-10-23T07:41:49.521Z,100707.00
2022-10-23T07:44:15.994Z,100716.00
2022-10-23T07:46:42.430Z,100722.00
2022-10-23T07:49:10.391Z,100726.00
2022-10-23T07:51:36.856Z,100709.00
2022-10-23T07:54:03.405Z,100695.00
2022-10-23T07:56:29.983Z,100702.00
2022-10-23T07:58:56.425Z,100704.00
2022-10-23T08:01:27.871Z,100709.00
2022-10-23T08:03:54.328Z,100709.00
2022-10-23T08:06:20.915Z,100710.00
2022-10-23T08:08:47.345Z,100695.00
2022-10-23T08:11:14.873Z,100689.00
2022-10-23T08:13:41.671Z,100687.00
2022-10-23T08:16:08.285Z,100681.00
2022-10-23T08:18:34.721Z,100680.00
2022-10-23T08:21:02.151Z,100662.00
2022-10-23T08:23:28.918Z,100643.00
2022-10-23T08:26:00.221Z,100636.00
2022-10-23T08:28:27.362Z,100622.00
2022-10-23T08:30:54.476Z,100607.00
2022-10-23T08:33:21.444Z,100607.00
2022-10-23T08:35:47.905Z,100601.00
2022-10-23T08:38:14.313Z,100614.00
2022-10-23T08:40:44.582Z,100619.00
2022-10-23T08:43:10.976Z,100623.00
2022-10-23T08:45:45.334Z,100624.00
2022-10-23T08:48:17.626Z,100587.00
2022-10-23T08:50:47.360Z,100555.00
2022-10-23T08:53:32.416Z,100552.00
2022-10-23T08:56:03.477Z,100530.00
2022-10-23T09:01:32.057Z,100495.00
2022-10-23T09:03:58.728Z,100498.00
2022-10-23T09:06:35.471Z,100488.00
2022-10-23T09:09:04.675Z,100480.00
2022-10-23T09:12:06.863Z,100468.00
2022-10-23T09:14:36.316Z,100457.00
2022-10-23T09:17:20.921Z,100453.00
2022-10-23T09:19:47.652Z,100450.00
2022-10-23T09:22:14.188Z,100444.00
2022-10-23T09:24:42.715Z,100447.00
2022-10-23T09:27:14.591Z,100446.00
2022-10-23T09:29:46.981Z,100465.00
2022-10-23T09:32:13.412Z,100464.00
2022-10-23T09:34:49.891Z,100454.00
2022-10-23T09:37:26.897Z,100470.00
2022-10-23T09:40:11.758Z,100459.00
2022-10-23T09:42:38.208Z,100453.00
2022-10-23T09:45:20.708Z,100453.00
2022-10-23T09:47:47.133Z,100461.00
2022-10-23T09:50:20.555Z,100447.00
2022-10-23T09:52:49.939Z,100449.00
2022-10-23T09:55:21.287Z,100452.00
2022-10-23T09:57:48.050Z,100457.00
2022-10-23T10:00:14.613Z,100465.00
2022-10-23T10:02:43.170Z,100486.00
2022-10-23T10:05:28.263Z,100483.00
2022-10-23T10:08:13.476Z,100477.00
2022-10-23T10:10:44.869Z,100484.00
2022-10-23T10:13:17.384Z,100481.00
2022-10-23T10:15:47.805Z,100483.00
2022-10-23T10:18:26.542Z,100483.00
2022-10-23T10:21:05.259Z,100489.00
2022-10-23T10:23:37.690Z,100483.00
2022-10-23T10:26:07.232Z,100492.00
2022-10-23T10:28:36.641Z,100486.00
2022-10-23T10:31:13.609Z,100495.00
2022-10-23T10:33:43.023Z,100489.00
2022-10-23T10:36:17.500Z,100480.00
2022-10-23T10:38:50.859Z,100484.00
2022-10-23T10:41:30.077Z,100490.00
2022-10-23T10:43:59.539Z,100478.00
2022-10-23T10:46:29.034Z,100474.00
2022-10-23T10:49:13.500Z,100460.00
2022-10-23T10:51:51.806Z,100466.00
2022-10-23T10:54:44.493Z,100468.00
2022-10-23T10:57:20.603Z,100465.00
2022-10-23T10:59:49.223Z,100468.00
2022-10-23T11:02:21.854Z,100456.00
2022-10-23T11:04:57.618Z,100447.00
2022-10-23T11:07:26.162Z,100442.00
2022-10-23T11:09:52.695Z,100443.00
2022-10-23T11:12:23.945Z,100429.00
2022-10-23T11:14:50.937Z,100435.00
2022-10-23T11:17:24.427Z,100428.00
2022-10-23T11:20:00.935Z,100432.00
2022-10-23T11:22:42.577Z,100417.00
2022-10-23T11:25:12.306Z,100415.00
2022-10-23T11:27:47.855Z,100422.00
2022-10-23T11:30:23.598Z,100417.00
2022-10-23T11:33:08.541Z,100398.00
2022-10-23T11:35:56.073Z,100407.00
2022-10-23T11:38:30.101Z,100397.00
2022-10-23T11:41:04.214Z,100399.00
2022-10-23T11:43:30.782Z,100382.00
2022-10-23T11:45:57.875Z,100366.00
2022-10-23T11:48:36.818Z,100360.00
2022-10-23T11:51:05.101Z,100361.00
2022-10-23T11:53:31.790Z,100337.00
2022-10-23T11:56:01.071Z,100333.00
2022-10-23T11:58:47.973Z,100336.00
2022-10-23T12:01:24.379Z,100319.00
2022-10-23T12:03:53.063Z,100303.00
2022-10-23T12:06:29.668Z,100292.00
2022-10-23T12:08:59.284Z,100298.00
2022-10-23T12:11:40.768Z,100297.00
2022-10-23T12:14:25.196Z,100283.00
2022-10-23T12:16:51.617Z,100303.00
2022-10-23T12:19:20.819Z,100306.00
2022-10-23T12:21:47.729Z,100320.00
2022-10-23T12:24:14.163Z,100309.00
2022-10-23T12:26:46.773Z,100300.00
2022-10-23T12:29:19.102Z,100308.00
2022-10-23T12:31:50.467Z,100294.00
2022-10-23T12:34:35.617Z,100289.00
2022-10-23T12:37:14.191Z,100299.00
2022-10-23T12:39:40.819Z,100293.00
2022-10-23T12:42:15.507Z,100295.00
2022-10-23T12:44:41.946Z,100289.00
2022-10-23T12:47:15.321Z,100288.00
2022-10-23T12:49:48.045Z,100283.00
2022-10-23T12:52:18.884Z,100278.00
2022-10-23T12:54:45.345Z,100284.00
2022-10-23T12:57:32.048Z,100288.00
2022-10-23T13:00:04.543Z,100288.00
2022-10-23T13:02:32.073Z,100281.00
2022-10-23T13:05:00.795Z,100282.00
2022-10-23T13:07:29.138Z,100275.00
2022-10-23T13:09:55.701Z,100267.00
2022-10-23T13:12:30.166Z,100255.00
2022-10-23T13:14:59.177Z,100260.00
2022-10-23T13:17:36.473Z,100261.00
2022-10-23T13:20:17.900Z,100257.00
2022-10-23T13:22:45.441Z,100261.00
2022-10-23T13:25:32.041Z,100249.00
2022-10-23T13:28:07.604Z,100240.00
2022-10-23T13:30:35.517Z,100234.00
2022-10-23T13:33:02.032Z,100234.00
2022-10-23T13:35:28.510Z,100226.00
2022-10-23T13:37:54.962Z,100242.00
2022-10-23T13:40:25.891Z,100235.00
2022-10-23T13:42:53.460Z,100236.00
2022-10-23T13:45:21.663Z,100230.00
2022-10-23T13:47:48.116Z,100237.00
2022-10-23T13:50:14.552Z,100240.00
2022-10-23T13:52:40.986Z,100243.00
2022-10-23T13:55:17.644Z,100241.00
2022-10-23T13:57:44.361Z,100236.00
2022-10-23T14:00:11.335Z,100225.00
2022-10-23T14:02:37.847Z,100233.00
2022-10-23T14:05:04.570Z,100225.00
2022-10-23T14:07:30.988Z,100211.00
2022-10-23T14:09:57.438Z,100210.00
2022-10-23T14:12:23.972Z,100207.00
2022-10-23T14:14:51.261Z,100191.00
2022-10-23T14:17:17.979Z,100200.00
2022-10-23T14:19:45.614Z,100197.00
2022-10-23T14:22:12.332Z,100198.00
2022-10-23T14:24:38.961Z,100201.00
2022-10-23T14:27:05.493Z,100190.00
2022-10-23T14:29:31.984Z,100185.00
2022-10-23T14:31:58.546Z,100184.00
2022-10-23T14:34:25.009Z,100187.00
2022-10-23T14:37:07.410Z,100194.00
2022-10-23T14:39:34.999Z,100199.00
2022-10-23T14:42:01.522Z,100201.00
2022-10-23T14:44:28.072Z,100193.00
2022-10-23T14:46:54.629Z,100186.00
2022-10-23T14:49:21.153Z,100186.00
2022-10-23T14:51:47.566Z,100183.00
2022-10-23T14:54:15.713Z,100189.00
2022-10-23T14:56:42.202Z,100175.00
2022-10-23T14:59:10.675Z,100172.00
2022-10-23T15:01:43.870Z,100183.00
2022-10-23T15:04:14.375Z,100177.00
2022-10-23T15:06:41.985Z,100173.00
2022-10-23T15:09:08.420Z,100180.00
2022-10-23T15:11:34.808Z,100177.00
2022-10-23T15:14:01.355Z,100176.00
2022-10-23T15:16:27.891Z,100170.00
2022-10-23T15:18:54.324Z,100178.00
2022-10-23T15:21:20.776Z,100171.00
2022-10-23T15:23:47.245Z,100166.00
2022-10-23T15:26:20.100Z,100160.00
2022-10-23T15:28:47.063Z,100164.00
2022-10-23T15:31:32.180Z,100155.00
2022-10-23T15:33:59.014Z,100149.00
2022-10-23T15:36:25.812Z,100137.00
2022-10-23T15:38:52.476Z,100142.00
2022-10-23T15:41:25.630Z,100145.00
2022-10-23T15:43:52.164Z,100105.00
2022-10-23T15:46:18.719Z,100089.00
2022-10-23T15:48:45.108Z,100108.00
2022-10-23T15:51:11.614Z,100096.00
2022-10-23T15:53:38.154Z,100093.00
2022-10-23T15:56:04.799Z,100094.00
2022-10-23T15:58:31.197Z,100094.00
2022-10-23T16:00:57.821Z,100088.00
2022-10-23T16:03:24.438Z,100069.00
2022-10-23T16:05:50.884Z,100074.00
2022-10-23T16:08:17.391Z,100059.00
2022-10-23T16:10:43.809Z,100053.00
2022-10-23T16:13:10.384Z,100029.00
2022-10-23T16:15:37.791Z,100033.00
2022-10-23T16:18:04.483Z,100032.00
2022-10-23T16:20:30.970Z,100027.00
2022-10-23T16:22:57.355Z,100033.00
2022-10-23T16:25:23.914Z,100022.00
2022-10-23T16:27:50.428Z,100019.00
2022-10-23T16:30:16.846Z,100025.00
2022-10-23T16:32:43.439Z,100028.00
2022-10-23T16:35:12.426Z,100028.00
2022-10-23T16:37:39.700Z,100039.00
2022-10-23T16:40:06.472Z,100053.00
2022-10-23T16:42:33.383Z,100085.00
2022-10-23T16:44:59.810Z,100089.00
2022-10-23T16:47:26.263Z,100092.00
2022-10-23T16:49:52.723Z,100066.00
2022-10-23T16:52:19.197Z,100077.00
2022-10-23T16:54:45.707Z,100083.00
2022-10-23T16:57:12.093Z,100059.00
2022-10-23T16:59:38.636Z,100047.00
2022-10-23T17:02:05.207Z,100054.00
2022-10-23T17:04:31.751Z,100108.00
2022-10-23T17:06:58.183Z,100153.00
2022-10-23T17:09:26.534Z,100143.00
2022-10-23T17:11:54.105Z,100112.00
2022-10-23T17:14:21.274Z,100120.00
2022-10-23T17:16:48.965Z,100183.00
2022-10-23T17:19:39.794Z,100290.00
2022-10-23T17:22:03.994Z,100241.00
2022-10-23T17:24:30.528Z,100168.00
2022-10-23T17:26:56.956Z,100170.00
2022-10-23T17:29:23.513Z,100189.00
2022-10-23T17:31:50.594Z,100184.00
2022-10-23T17:34:18.740Z,100175.00
2022-10-23T17:36:47.136Z,100171.00
2022-10-23T17:39:14.771Z,100172.00
2022-10-23T17:41:41.433Z,100166.00
2022-10-23T17:44:07.882Z,100154.00
2022-10-23T17:46:34.397Z,100150.00
2022-10-23T17:51:30.602Z,100145.00
2022-10-23T17:53:59.699Z,100135.00
2022-10-23T17:56:27.651Z,100135.00
2022-10-23T17:58:55.220Z,100137.00
2022-10-23T18:01:25.253Z,100142.00
2022-10-23T18:03:52.399Z,100150.00
2022-10-23T18:06:22.444Z,100148.00
2022-10-23T18:08:51.214Z,100155.00
2022-10-23T18:11:19.241Z,100162.00
2022-10-23T18:13:46.276Z,100163.00
2022-10-23T18:16:13.010Z,100178.00
2022-10-23T18:18:39.751Z,100174.00
2022-10-23T18:21:07.336Z,100165.00
2022-10-23T18:23:34.628Z,100168.00
2022-10-23T18:26:01.590Z,100174.00
2022-10-23T18:28:28.515Z,100174.00
2022-10-23T18:30:56.957Z,100172.00
2022-10-23T18:33:24.250Z,100169.00
2022-10-23T18:35:50.669Z,100176.00
2022-10-23T18:38:17.127Z,100190.00
2022-10-23T18:40:43.716Z,100188.00
2022-10-23T18:43:14.837Z,100186.00
2022-10-23T18:45:42.452Z,100191.00
2022-10-23T18:48:08.876Z,100184.00
2022-10-23T18:50:36.292Z,100184.00
2022-10-23T18:53:02.758Z,100188.00
2022-10-23T18:55:29.262Z,100190.00
2022-10-23T18:57:55.765Z,100190.00
2022-10-23T19:00:22.342Z,100195.00
2022-10-23T19:02:52.235Z,100195.00
2022-10-23T19:05:19.426Z,100189.00
2022-10-23T19:07:46.193Z,100189.00
2022-10-23T19:10:15.902Z,100178.00
2022-10-23T19:12:42.808Z,100180.00
2022-10-23T19:15:10.093Z,100184.00
2022-10-23T19:17:36.940Z,100186.00
2022-10-23T19:20:07.042Z,100174.00
2022-10-23T19:22:35.363Z,100179.00
2022-10-23T19:25:10.240Z,100182.00
2022-10-23T19:27:37.556Z,100187.00
2022-10-23T19:30:06.540Z,100186.00
2022-10-23T19:32:33.022Z,100186.00
2022-10-23T19:35:00.757Z,100184.00
2022-10-23T19:37:27.201Z,100179.00
2022-10-23T19:39:53.594Z,100188.00
2022-10-23T19:42:20.015Z,100188.00
2022-10-23T19:44:46.487Z,100185.00
2022-10-23T19:47:12.928Z,100186.00
2022-10-23T19:49:39.341Z,100186.00
2022-10-23T19:52:05.795Z,100190.00
2022-10-23T19:54:32.241Z,100189.00
2022-10-23T19:56:58.713Z,100185.00
2022-10-23T19:59:25.172Z,100191.00
2022-10-23T20:01:51.690Z,100187.00
2022-10-23T20:04:18.500Z,100195.00
2022-10-23T20:06:45.209Z,100187.00
2022-10-23T20:09:11.674Z,100190.00
2022-10-23T20:11:38.622Z,100194.00
2022-10-23T20:14:05.507Z,100191.00
2022-10-23T20:16:33.465Z,100187.00
2022-10-23T20:19:01.637Z,100184.00
2022-10-23T20:21:28.036Z,100186.00
2022-10-23T20:23:56.281Z,100178.00
2022-10-23T20:26:22.745Z,100178.00
2022-10-23T20:28:51.699Z,100180.00
2022-10-23T20:31:19.680Z,100166.00
2022-10-23T20:33:46.247Z,100169.00
2022-10-23T20:36:23.219Z,100173.00
2022-10-23T20:38:49.771Z,100174.00
2022-10-23T20:41:16.224Z,100182.00
2022-10-23T20:43:42.639Z,100180.00
2022-10-23T20:46:09.653Z,100193.00
2022-10-23T20:48:39.728Z,100190.00
2022-10-23T20:51:07.171Z,100194.00
2022-10-23T20:53:34.493Z,100188.00
2022-10-23T20:56:04.031Z,100183.00
2022-10-23T20:58:30.505Z,100170.00
2022-10-23T21:01:01.552Z,100174.00
2022-10-23T21:03:28.045Z,100180.00
2022-10-23T21:05:54.460Z,100176.00
2022-10-23T21:08:20.880Z,100164.00
2022-10-23T21:10:47.412Z,100163.00
2022-10-23T21:13:13.943Z,100166.00
2022-10-23T21:15:40.371Z,100158.00
2022-10-23T21:18:27.565Z,100168.00
2022-10-23T21:21:00.395Z,100179.00
2022-10-23T21:23:28.402Z,100172.00
2022-10-23T21:25:54.845Z,100167.00
2022-10-23T21:28:21.322Z,100170.00
2022-10-23T21:30:47.727Z,100172.00
2022-10-23T21:33:14.344Z,100165.00
2022-10-23T21:35:47.527Z,100166.00
2022-10-23T21:38:24.674Z,100164.00
2022-10-23T21:40:51.111Z,100162.00
2022-10-23T21:43:17.805Z,100158.00
2022-10-23T21:45:44.199Z,100157.00
2022-10-23T21:48:10.627Z,100154.00
2022-10-23T21:50:37.069Z,100147.00
2022-10-23T21:53:03.592Z,100152.00
2022-10-23T21:55:30.601Z,100150.00
2022-10-23T21:57:57.054Z,100147.00
2022-10-23T22:00:23.757Z,100143.00
2022-10-23T22:02:50.257Z,100149.00
2022-10-23T22:05:16.805Z,100149.00
2022-10-23T22:07:46.446Z,100134.00
2022-10-23T22:10:13.094Z,100129.00
2022-10-23T22:12:39.718Z,100115.00
2022-10-23T22:15:06.514Z,100118.00
2022-10-23T22:17:33.039Z,100117.00
2022-10-23T22:19:59.469Z,100113.00
2022-10-23T22:22:25.961Z,100112.00
2022-10-23T22:24:52.354Z,100107.00
2022-10-23T22:27:18.853Z,100108.00
2022-10-23T22:29:45.237Z,100098.00
2022-10-23T22:32:11.724Z,100098.00
2022-10-23T22:34:52.437Z,100095.00
2022-10-23T22:37:19.804Z,100107.00
2022-10-23T22:39:46.236Z,100098.00
2022-10-23T22:42:12.708Z,100105.00
2022-10-23T22:44:39.152Z,100084.00
2022-10-23T22:47:06.246Z,100082.00
2022-10-23T22:49:32.747Z,100086.00
2022-10-23T22:51:59.211Z,100080.00
2022-10-23T22:54:25.591Z,100068.00
2022-10-23T22:56:52.248Z,100062.00
2022-10-23T22:59:18.652Z,100059.00
2022-10-23T23:01:46.679Z,100069.00
2022-10-23T23:04:36.830Z,100076.00
2022-10-23T23:06:59.866Z,100082.00
2022-10-23T23:09:26.332Z,100082.00
2022-10-23T23:11:52.926Z,100069.00
2022-10-23T23:14:23.535Z,100074.00
2022-10-23T23:16:51.967Z,100070.00
2022-10-23T23:19:18.456Z,100081.00
2022-10-23T23:21:44.857Z,100076.00
2022-10-23T23:24:11.825Z,100056.00
2022-10-23T23:26:38.284Z,100061.00
2022-10-23T23:29:04.702Z,100067.00
2022-10-23T23:31:31.146Z,100073.00
2022-10-23T23:33:57.563Z,100060.00
2022-10-23T23:36:25.264Z,100078.00
2022-10-23T23:38:52.536Z,100064.00
2022-10-23T23:41:20.687Z,100060.00
2022-10-23T23:43:47.136Z,100063.00
2022-10-23T23:46:13.612Z,100057.00
2022-10-23T23:48:42.226Z,100063.00
2022-10-23T23:51:09.109Z,100061.00
2022-10-23T23:53:35.535Z,100057.00
2022-10-23T23:56:01.978Z,100074.00
2022-10-23T23:58:28.434Z,100059.00
